Aviation Digital Data Service (ADDS)

Output produced by TAFs form (0347 UTC 23 October 2014)
found at http://aviationweather.gov/adds/tafs/
 
KLND 222321Z 2300/2324 VRB04KT P6SM SCT150 BKN250 
     FM231800 25010G18KT P6SM BKN200